Terminal Aerodrome Forecast
Issued by NWS

Home | Current Version | Previous Version | Text Only | Print | Product List | Glossary On
Versions: 1 2 3 4 5 6 7 8 9 10 11 12 13 14 15 16 17 18 19 20 21
000
FTUS43 KDTX 222327
TAFMBS
TAF
KMBS 222327Z 2300/2324 25012KT P6SM OVC100
     FM230200 21008KT P6SM OVC100
      TEMPO 2302/2305 P6SM -RA OVC070
     FM231400 22005KT P6SM OVC030
     FM232000 23007KT P6SM BKN030 PROB30 2320/2324 5SM -SHRA OVC025=

USA.gov is the U.S. government's official web portal to all federal, state and local government web resources and services.